Terminal Aerodrome Forecast
Issued by NWS

Home | Current Version | Previous Version | Text Only | Print | Product List | Glossary On
Versions: 1 2 3 4 5 6 7 8 9 10 11 12 13 14 15 16 17 18 19 20 21 22
000
FTUS43 KLSX 250900 AAB
TAFUIN
TAF AMD
KUIN 250936Z 2510/2606 26004KT 2SM BR SKC
      TEMPO 2511/2513 1/4SM FG VV002
     FM251500 33007KT P6SM SKC
     FM260000 VRB04KT P6SM SKC=

USA.gov is the U.S. government's official web portal to all federal, state and local government web resources and services.